createdAt,value
2023-05-17T00:00:19.854Z,52.40
2023-05-17T00:02:46.395Z,52.40
2023-05-17T00:05:12.939Z,52.50
2023-05-17T00:07:39.535Z,52.50
2023-05-17T00:10:06.041Z,53.10
2023-05-17T00:12:32.564Z,52.50
2023-05-17T00:14:59.089Z,52.50
2023-05-17T00:17:26.092Z,52.50
2023-05-17T00:19:52.809Z,52.30
2023-05-17T00:22:19.517Z,52.50
2023-05-17T00:24:46.037Z,52.40
2023-05-17T00:27:12.561Z,52.50
2023-05-17T00:29:39.080Z,52.40
2023-05-17T00:32:05.604Z,52.40
2023-05-17T00:34:32.164Z,52.50
2023-05-17T00:36:58.700Z,52.50
2023-05-17T00:39:25.225Z,52.50
2023-05-17T00:41:51.773Z,52.50
2023-05-17T00:44:18.288Z,52.40
2023-05-17T00:46:44.835Z,52.50
2023-05-17T00:49:11.336Z,52.60
2023-05-17T00:51:37.883Z,52.50
2023-05-17T00:54:04.460Z,52.50
2023-05-17T00:56:30.981Z,52.40
2023-05-17T00:58:57.502Z,52.40
2023-05-17T01:01:24.022Z,52.50
2023-05-17T01:03:50.711Z,52.50
2023-05-17T01:06:17.381Z,52.40
2023-05-17T01:08:43.925Z,52.40
2023-05-17T01:11:10.444Z,52.40
2023-05-17T01:13:36.950Z,52.50
2023-05-17T01:16:03.476Z,52.60
2023-05-17T01:18:30.083Z,52.50
2023-05-17T01:20:56.689Z,52.40
2023-05-17T01:23:23.300Z,52.50
2023-05-17T01:25:49.842Z,52.50
2023-05-17T01:28:16.372Z,52.60
2023-05-17T01:30:42.899Z,52.60
2023-05-17T01:33:09.515Z,52.60
2023-05-17T01:35:36.110Z,52.60
2023-05-17T01:38:02.637Z,52.60
2023-05-17T01:40:29.207Z,52.60
2023-05-17T01:42:55.761Z,52.70
2023-05-17T01:45:22.260Z,52.50
2023-05-17T01:47:48.795Z,52.70
2023-05-17T01:50:15.322Z,52.70
2023-05-17T01:52:41.830Z,52.70
2023-05-17T01:55:08.337Z,52.80
2023-05-17T01:57:34.852Z,52.70
2023-05-17T02:00:01.358Z,52.70
2023-05-17T02:02:32.111Z,52.80
2023-05-17T02:04:58.710Z,52.70
2023-05-17T02:07:25.258Z,52.70
2023-05-17T02:09:51.780Z,52.70
2023-05-17T02:12:18.288Z,52.70
2023-05-17T02:14:44.805Z,52.60
2023-05-17T02:17:11.367Z,52.60
2023-05-17T02:19:37.970Z,52.60
2023-05-17T02:22:04.543Z,52.70
2023-05-17T02:24:31.077Z,52.60
2023-05-17T02:26:57.586Z,52.60
2023-05-17T02:29:24.207Z,52.70
2023-05-17T02:31:50.726Z,52.80
2023-05-17T02:34:17.274Z,52.80
2023-05-17T02:36:43.813Z,52.70
2023-05-17T02:39:10.348Z,52.70
2023-05-17T02:41:36.853Z,52.70
2023-05-17T02:44:03.380Z,52.60
2023-05-17T02:46:29.895Z,52.70
2023-05-17T02:48:56.442Z,52.70
2023-05-17T02:51:22.948Z,52.80
2023-05-17T02:53:49.482Z,52.80
2023-05-17T02:56:15.996Z,52.80
2023-05-17T02:58:42.513Z,52.90
2023-05-17T03:01:09.061Z,52.90
2023-05-17T03:03:35.708Z,52.80
2023-05-17T03:06:02.320Z,52.70
2023-05-17T03:08:28.863Z,52.80
2023-05-17T03:10:55.382Z,52.80
2023-05-17T03:13:21.903Z,52.80
2023-05-17T03:15:48.425Z,52.70
2023-05-17T03:18:15.083Z,52.80
2023-05-17T03:20:41.639Z,52.80
2023-05-17T03:23:08.167Z,52.80
2023-05-17T03:25:34.725Z,52.80
2023-05-17T03:28:01.248Z,52.80
2023-05-17T03:30:27.808Z,52.70
2023-05-17T03:32:54.381Z,52.80
2023-05-17T03:35:20.950Z,52.80
2023-05-17T03:37:47.479Z,52.70
2023-05-17T03:40:14.021Z,52.70
2023-05-17T03:42:40.532Z,52.70
2023-05-17T03:45:07.059Z,52.80
2023-05-17T03:47:33.594Z,52.90
2023-05-17T03:50:00.194Z,52.80
2023-05-17T03:52:26.747Z,52.80
2023-05-17T03:54:53.296Z,52.80
2023-05-17T03:57:19.803Z,52.80
2023-05-17T03:59:46.307Z,52.80
2023-05-17T04:02:12.833Z,52.80
2023-05-17T04:04:39.372Z,53.00
2023-05-17T04:07:05.901Z,52.90
2023-05-17T04:09:38.213Z,52.90
2023-05-17T04:12:04.728Z,52.90
2023-05-17T04:14:31.291Z,52.90
2023-05-17T04:16:57.855Z,52.80
2023-05-17T04:19:24.848Z,52.90
2023-05-17T04:21:51.420Z,53.00
2023-05-17T04:24:17.937Z,53.00
2023-05-17T04:26:44.466Z,52.80
2023-05-17T04:29:10.966Z,52.90
2023-05-17T04:31:37.496Z,52.90
2023-05-17T04:34:04.094Z,52.90
2023-05-17T04:36:30.637Z,53.00
2023-05-17T04:38:57.147Z,52.90
2023-05-17T04:41:23.672Z,52.90
2023-05-17T04:43:50.172Z,52.80
2023-05-17T04:46:16.674Z,52.90
2023-05-17T04:48:43.291Z,53.30
2023-05-17T04:51:09.910Z,53.20
2023-05-17T04:53:36.432Z,52.90
2023-05-17T04:56:02.956Z,53.00
2023-05-17T04:58:29.474Z,53.10
2023-05-17T05:00:56.007Z,53.10
2023-05-17T05:03:22.598Z,52.90
2023-05-17T05:05:49.133Z,52.60
2023-05-17T05:08:15.670Z,52.50
2023-05-17T05:10:42.205Z,52.50
2023-05-17T05:13:08.734Z,52.50
2023-05-17T05:15:35.247Z,52.40
2023-05-17T05:18:01.809Z,52.50
2023-05-17T05:20:28.458Z,52.50
2023-05-17T05:22:54.976Z,52.60
2023-05-17T05:25:21.504Z,52.50
2023-05-17T05:27:48.039Z,52.60
2023-05-17T05:30:14.529Z,52.50
2023-05-17T05:32:41.103Z,52.50
2023-05-17T05:35:07.710Z,52.50
2023-05-17T05:37:34.226Z,52.50
2023-05-17T05:40:00.735Z,52.60
2023-05-17T05:42:27.261Z,52.80
2023-05-17T05:44:53.760Z,52.70
2023-05-17T05:47:20.294Z,52.70
2023-05-17T05:49:46.800Z,52.60
2023-05-17T05:52:13.330Z,52.90
2023-05-17T05:54:39.861Z,52.90
2023-05-17T05:57:06.382Z,53.00
2023-05-17T05:59:32.892Z,52.80
2023-05-17T06:01:59.392Z,53.00
2023-05-17T06:04:33.071Z,52.90
2023-05-17T06:07:07.794Z,53.10
2023-05-17T06:09:34.386Z,53.00
2023-05-17T06:12:00.913Z,53.10
2023-05-17T06:14:27.469Z,53.10
2023-05-17T06:16:53.990Z,53.10
2023-05-17T06:19:20.953Z,53.20
2023-05-17T06:21:47.528Z,53.10
2023-05-17T06:24:14.042Z,53.30
2023-05-17T06:26:40.555Z,53.30
2023-05-17T06:29:07.071Z,52.90
2023-05-17T06:31:33.587Z,53.00
2023-05-17T06:34:00.178Z,53.30
2023-05-17T06:36:26.761Z,53.10
2023-05-17T06:38:53.265Z,53.10
2023-05-17T06:41:23.090Z,53.90
2023-05-17T06:43:49.617Z,53.20
2023-05-17T06:46:16.314Z,53.10
2023-05-17T06:48:43.095Z,53.30
2023-05-17T06:51:09.702Z,53.20
2023-05-17T06:53:36.234Z,53.70
2023-05-17T06:56:02.764Z,53.10
2023-05-17T06:58:29.276Z,53.10
2023-05-17T07:00:55.803Z,53.00
2023-05-17T07:03:22.393Z,53.10
2023-05-17T07:05:49.221Z,53.00
2023-05-17T07:08:15.737Z,53.10
2023-05-17T07:10:42.282Z,53.00
2023-05-17T07:13:08.961Z,53.00
2023-05-17T07:15:35.498Z,52.90
2023-05-17T07:18:02.142Z,52.90
2023-05-17T07:20:28.741Z,52.90
2023-05-17T07:22:55.266Z,52.90
2023-05-17T07:25:21.793Z,52.90
2023-05-17T07:27:48.313Z,52.90
2023-05-17T07:30:14.845Z,52.80
2023-05-17T07:32:41.383Z,52.70
2023-05-17T07:35:07.964Z,53.10
2023-05-17T07:37:34.480Z,53.00
2023-05-17T07:40:01.008Z,53.00
2023-05-17T07:42:27.526Z,52.70
2023-05-17T07:44:54.048Z,52.60
2023-05-17T07:47:20.578Z,52.80
2023-05-17T07:49:47.128Z,53.10
2023-05-17T07:52:13.661Z,52.90
2023-05-17T07:54:40.440Z,52.70
2023-05-17T07:57:06.975Z,52.80
2023-05-17T07:59:33.501Z,53.20
2023-05-17T08:02:00.051Z,53.00
2023-05-17T08:04:26.642Z,53.20
2023-05-17T08:06:53.209Z,53.00
2023-05-17T08:09:19.713Z,53.30
2023-05-17T08:11:46.295Z,53.00
2023-05-17T08:14:12.848Z,52.80
2023-05-17T08:16:39.357Z,52.30
2023-05-17T08:19:05.936Z,52.50
2023-05-17T08:21:32.843Z,52.30
2023-05-17T08:23:59.358Z,52.30
2023-05-17T08:26:25.860Z,52.90
2023-05-17T08:28:52.361Z,53.50
2023-05-17T08:31:18.879Z,52.60
2023-05-17T08:33:45.410Z,52.50
2023-05-17T08:36:11.934Z,52.40
2023-05-17T08:38:38.459Z,52.50
2023-05-17T08:41:04.986Z,52.20
2023-05-17T08:43:31.519Z,52.20
2023-05-17T08:45:59.018Z,52.20
2023-05-17T08:48:25.575Z,52.40
2023-05-17T08:50:52.130Z,52.50
2023-05-17T08:53:18.756Z,52.50
2023-05-17T08:55:45.272Z,52.20
2023-05-17T08:58:11.801Z,52.10
2023-05-17T09:00:38.324Z,52.30
2023-05-17T09:03:04.958Z,52.50
2023-05-17T09:05:31.613Z,52.40
2023-05-17T09:07:58.183Z,52.50
2023-05-17T09:10:24.693Z,52.30
2023-05-17T09:12:51.203Z,52.00
2023-05-17T09:15:17.735Z,52.50
2023-05-17T09:17:44.437Z,52.10
2023-05-17T09:20:11.153Z,52.30
2023-05-17T09:22:37.728Z,52.50
2023-05-17T09:25:04.250Z,52.30
2023-05-17T09:27:30.784Z,52.20
2023-05-17T09:29:57.291Z,51.90
2023-05-17T09:32:23.830Z,51.80
2023-05-17T09:34:50.375Z,51.90
2023-05-17T09:37:16.910Z,52.20
2023-05-17T09:39:43.436Z,52.20
2023-05-17T09:42:09.950Z,52.10
2023-05-17T09:44:36.458Z,52.20
2023-05-17T09:47:02.977Z,52.00
2023-05-17T09:49:29.491Z,52.00
2023-05-17T09:51:56.000Z,51.80
2023-05-17T09:54:22.498Z,51.90
2023-05-17T09:56:49.008Z,51.70
2023-05-17T09:59:15.584Z,51.00
2023-05-17T10:01:42.182Z,51.20
2023-05-17T10:04:08.739Z,51.70
2023-05-17T10:06:45.277Z,51.60
2023-05-17T10:09:14.577Z,51.50
2023-05-17T10:11:41.206Z,51.60
2023-05-17T10:14:07.734Z,51.60
2023-05-17T10:16:34.251Z,51.60
2023-05-17T10:19:00.801Z,51.30
2023-05-17T10:21:27.394Z,51.40
2023-05-17T10:23:53.933Z,51.00
2023-05-17T10:26:20.462Z,51.00
2023-05-17T10:28:46.986Z,51.40
2023-05-17T10:31:13.491Z,51.40
2023-05-17T10:33:46.830Z,51.60
2023-05-17T10:36:13.379Z,51.50
2023-05-17T10:38:42.951Z,51.20
2023-05-17T10:41:09.810Z,51.30
2023-05-17T10:43:36.334Z,51.50
2023-05-17T10:46:02.859Z,51.30
2023-05-17T10:48:29.434Z,51.20
2023-05-17T10:53:27.408Z,51.30
2023-05-17T10:55:53.919Z,51.00
2023-05-17T10:58:20.467Z,50.20
2023-05-17T11:00:46.991Z,50.60
2023-05-17T11:03:13.513Z,50.90
2023-05-17T11:05:40.079Z,51.00
2023-05-17T11:08:06.611Z,50.60
2023-05-17T11:10:33.369Z,50.80
2023-05-17T11:12:59.889Z,50.90
2023-05-17T11:15:26.508Z,51.70
2023-05-17T11:17:53.237Z,51.00
2023-05-17T11:20:19.988Z,51.00
2023-05-17T11:22:46.595Z,50.90
2023-05-17T11:25:13.125Z,50.90
2023-05-17T11:27:39.644Z,51.00
2023-05-17T11:30:06.189Z,50.80
2023-05-17T11:32:32.747Z,51.00
2023-05-17T11:34:59.322Z,51.10
2023-05-17T11:37:25.850Z,51.20
2023-05-17T11:39:53.144Z,51.20
2023-05-17T11:42:20.842Z,51.10
2023-05-17T11:44:47.379Z,51.20
2023-05-17T11:47:14.005Z,51.20
2023-05-17T11:49:40.510Z,51.00
2023-05-17T11:52:07.053Z,51.20
2023-05-17T11:54:33.594Z,51.30
2023-05-17T11:57:00.150Z,51.40
2023-05-17T11:59:26.673Z,51.50
2023-05-17T12:01:53.182Z,51.40
2023-05-17T12:04:19.782Z,51.30
2023-05-17T12:06:46.485Z,51.50
2023-05-17T12:09:13.079Z,51.60
2023-05-17T12:11:39.637Z,51.50
2023-05-17T12:14:06.179Z,51.30
2023-05-17T12:16:32.724Z,51.30
2023-05-17T12:18:59.330Z,51.30
2023-05-17T12:21:26.008Z,51.30
2023-05-17T12:23:52.524Z,51.30
2023-05-17T12:26:19.053Z,51.40
2023-05-17T12:28:45.579Z,51.50
2023-05-17T12:31:12.084Z,51.40
2023-05-17T12:33:38.774Z,51.50
2023-05-17T12:36:05.384Z,51.50
2023-05-17T12:38:31.902Z,51.50
2023-05-17T12:40:58.431Z,51.60
2023-05-17T12:43:24.942Z,51.60
2023-05-17T12:45:51.454Z,51.60
2023-05-17T12:48:18.077Z,51.50
2023-05-17T12:50:44.706Z,51.60
2023-05-17T12:53:11.246Z,51.50
2023-05-17T12:55:37.770Z,51.60
2023-05-17T12:58:04.299Z,51.50
2023-05-17T13:00:31.081Z,51.50
2023-05-17T13:02:57.700Z,51.40
2023-05-17T13:05:24.305Z,52.20
2023-05-17T13:07:50.808Z,51.50
2023-05-17T13:10:17.334Z,51.50
2023-05-17T13:12:43.874Z,51.50
2023-05-17T13:15:10.393Z,51.50
2023-05-17T13:17:37.308Z,51.50
2023-05-17T13:20:05.347Z,51.50
2023-05-17T13:22:33.121Z,51.50
2023-05-17T13:24:59.656Z,51.60
2023-05-17T13:27:26.191Z,51.70
2023-05-17T13:29:52.686Z,51.60
2023-05-17T13:32:19.252Z,51.50
2023-05-17T13:34:45.789Z,51.60
2023-05-17T13:37:12.868Z,51.60
2023-05-17T13:39:39.515Z,51.70
2023-05-17T13:42:06.032Z,51.40
2023-05-17T13:44:32.528Z,51.50
2023-05-17T13:46:59.060Z,51.60
2023-05-17T13:49:25.588Z,51.60
2023-05-17T13:51:52.093Z,51.60
2023-05-17T13:54:18.637Z,51.50
2023-05-17T13:56:45.140Z,51.50
2023-05-17T13:59:11.663Z,51.50
2023-05-17T14:01:38.204Z,51.70
2023-05-17T14:04:04.848Z,51.70
2023-05-17T14:06:31.718Z,51.80
2023-05-17T14:08:58.346Z,51.70
2023-05-17T14:11:24.860Z,51.90
2023-05-17T14:13:51.389Z,51.80
2023-05-17T14:16:17.897Z,51.80
2023-05-17T14:18:44.498Z,52.00
2023-05-17T14:21:11.074Z,51.70
2023-05-17T14:23:37.894Z,52.30
2023-05-17T14:26:04.457Z,51.80
2023-05-17T14:28:30.988Z,51.80
2023-05-17T14:30:57.501Z,52.00
2023-05-17T14:33:24.153Z,51.60
2023-05-17T14:35:50.729Z,51.60
2023-05-17T14:38:17.239Z,51.60
2023-05-17T14:40:43.759Z,51.00
2023-05-17T14:43:10.293Z,51.50
2023-05-17T14:45:36.811Z,51.30
2023-05-17T14:48:03.378Z,51.70
2023-05-17T14:50:30.098Z,51.20
2023-05-17T14:52:56.747Z,51.30
2023-05-17T14:55:23.253Z,51.50
2023-05-17T14:57:49.772Z,51.30
2023-05-17T15:00:16.302Z,51.10
2023-05-17T15:02:42.834Z,51.30
2023-05-17T15:05:09.416Z,51.60
2023-05-17T15:07:35.986Z,51.50
2023-05-17T15:10:02.490Z,51.30
2023-05-17T15:12:28.996Z,51.80
2023-05-17T15:14:55.510Z,51.20
2023-05-17T15:17:22.024Z,51.00
2023-05-17T15:19:48.796Z,51.30
2023-05-17T15:22:15.383Z,51.80
2023-05-17T15:24:41.902Z,51.30
2023-05-17T15:27:08.559Z,51.40
2023-05-17T15:29:35.080Z,51.00
2023-05-17T15:32:01.567Z,51.30
2023-05-17T15:34:28.075Z,51.70
2023-05-17T15:36:54.611Z,51.70
2023-05-17T15:39:21.158Z,51.50
2023-05-17T15:41:47.685Z,51.20
2023-05-17T15:44:14.234Z,51.20
2023-05-17T15:46:40.751Z,51.10
2023-05-17T15:49:07.321Z,50.80
2023-05-17T15:51:33.884Z,51.40
2023-05-17T15:54:00.435Z,51.10
2023-05-17T15:56:26.946Z,52.10
2023-05-17T15:58:53.501Z,51.10
2023-05-17T16:01:20.006Z,52.10
2023-05-17T16:03:46.595Z,51.80
2023-05-17T16:06:13.413Z,51.80
2023-05-17T16:08:39.985Z,51.20
2023-05-17T16:11:06.498Z,51.80
2023-05-17T16:13:33.033Z,51.60
2023-05-17T16:15:59.589Z,50.80
2023-05-17T16:18:26.158Z,51.30
2023-05-17T16:20:52.753Z,52.20
2023-05-17T16:23:19.257Z,50.90
2023-05-17T16:25:45.787Z,51.40
2023-05-17T16:28:12.318Z,51.00
2023-05-17T16:30:38.856Z,51.30
2023-05-17T16:33:08.273Z,50.50
2023-05-17T16:35:35.056Z,50.60
2023-05-17T16:38:01.576Z,50.60
2023-05-17T16:40:33.010Z,50.90
2023-05-17T16:42:59.532Z,51.40
2023-05-17T16:45:26.041Z,51.40
2023-05-17T16:47:52.580Z,51.20
2023-05-17T16:50:19.176Z,50.60
2023-05-17T16:52:45.714Z,50.80
2023-05-17T16:55:12.267Z,51.40
2023-05-17T16:57:38.810Z,50.20
2023-05-17T17:00:05.381Z,50.80
2023-05-17T17:02:31.913Z,50.30
2023-05-17T17:04:58.439Z,50.50
2023-05-17T17:07:24.950Z,50.40
2023-05-17T17:09:51.470Z,50.40
2023-05-17T17:12:24.622Z,50.40
2023-05-17T17:14:52.367Z,50.90
2023-05-17T17:17:18.900Z,50.10
2023-05-17T17:19:45.468Z,50.30
2023-05-17T17:22:11.989Z,50.20
2023-05-17T17:24:38.568Z,50.10
2023-05-17T17:27:05.111Z,50.00
2023-05-17T17:29:31.628Z,50.10
2023-05-17T17:31:58.124Z,50.30
2023-05-17T17:34:24.634Z,50.00
2023-05-17T17:36:51.146Z,50.10
2023-05-17T17:39:17.663Z,50.30
2023-05-17T17:41:44.175Z,50.30
2023-05-17T17:44:10.712Z,50.30
2023-05-17T17:46:37.310Z,50.20
2023-05-17T17:49:03.849Z,50.10
2023-05-17T17:51:30.374Z,50.00
2023-05-17T17:53:56.889Z,50.20
2023-05-17T17:56:23.431Z,50.10
2023-05-17T17:58:49.951Z,49.80
2023-05-17T18:01:16.492Z,50.00
2023-05-17T18:03:43.056Z,50.10
2023-05-17T18:06:09.581Z,50.00
2023-05-17T18:08:36.112Z,50.10
2023-05-17T18:11:02.633Z,50.10
2023-05-17T18:13:29.139Z,50.20
2023-05-17T18:15:55.654Z,50.20
2023-05-17T18:18:22.164Z,50.00
2023-05-17T18:20:48.697Z,50.20
2023-05-17T18:23:15.205Z,50.10
2023-05-17T18:25:41.725Z,50.10
2023-05-17T18:28:09.003Z,50.10
2023-05-17T18:30:35.692Z,50.10
2023-05-17T18:33:02.285Z,50.10
2023-05-17T18:35:28.849Z,50.00
2023-05-17T18:37:55.380Z,50.10
2023-05-17T18:40:21.892Z,50.00
2023-05-17T18:42:48.442Z,50.00
2023-05-17T18:45:14.969Z,49.90
2023-05-17T18:47:41.512Z,49.80
2023-05-17T18:50:08.074Z,49.80
2023-05-17T18:52:34.648Z,50.10
2023-05-17T18:55:01.173Z,50.00
2023-05-17T18:57:27.818Z,50.20
2023-05-17T18:59:54.375Z,50.00
2023-05-17T19:02:20.992Z,50.00
2023-05-17T19:04:47.520Z,49.80
2023-05-17T19:07:14.021Z,49.80
2023-05-17T19:09:40.559Z,49.90
2023-05-17T19:12:07.093Z,49.80
2023-05-17T19:14:39.179Z,49.90
2023-05-17T19:17:05.714Z,49.80
2023-05-17T19:19:32.269Z,49.80
2023-05-17T19:21:58.800Z,49.70
2023-05-17T19:24:25.355Z,49.80
2023-05-17T19:26:51.870Z,49.80
2023-05-17T19:29:18.413Z,49.80
2023-05-17T19:31:45.012Z,49.70
2023-05-17T19:34:11.565Z,49.80
2023-05-17T19:36:38.086Z,49.90
2023-05-17T19:39:04.636Z,50.00
2023-05-17T19:41:31.184Z,49.80
2023-05-17T19:43:57.692Z,49.70
2023-05-17T19:46:24.269Z,49.90
2023-05-17T19:48:50.850Z,49.70
2023-05-17T19:51:17.369Z,49.80
2023-05-17T19:53:52.591Z,50.00
2023-05-17T19:56:20.251Z,50.00
2023-05-17T19:58:46.779Z,50.00
2023-05-17T20:01:13.292Z,49.90
2023-05-17T20:03:39.878Z,49.90
2023-05-17T20:06:06.438Z,49.80
2023-05-17T20:08:32.979Z,49.70
2023-05-17T20:10:59.519Z,49.80
2023-05-17T20:13:26.040Z,49.90
2023-05-17T20:15:52.571Z,49.70
2023-05-17T20:18:19.080Z,49.60
2023-05-17T20:20:45.720Z,49.50
2023-05-17T20:23:12.234Z,49.60
2023-05-17T20:25:38.774Z,49.60
2023-05-17T20:28:05.295Z,49.70
2023-05-17T20:30:32.080Z,49.50
2023-05-17T20:32:58.820Z,49.40
2023-05-17T20:35:25.380Z,49.50
2023-05-17T20:37:51.922Z,49.30
2023-05-17T20:40:18.486Z,49.40
2023-05-17T20:42:45.026Z,49.40
2023-05-17T20:45:13.904Z,49.10
2023-05-17T20:47:41.246Z,49.30
2023-05-17T20:50:07.849Z,49.40
2023-05-17T20:52:39.356Z,49.30
2023-05-17T20:55:06.420Z,49.30
2023-05-17T20:57:32.958Z,49.80
2023-05-17T20:59:59.484Z,49.20
2023-05-17T21:02:26.166Z,49.10
2023-05-17T21:04:52.851Z,49.30
2023-05-17T21:07:19.396Z,49.10
2023-05-17T21:09:45.904Z,49.20
2023-05-17T21:12:12.431Z,49.10
2023-05-17T21:14:38.946Z,49.00
2023-05-17T21:17:05.492Z,48.80
2023-05-17T21:19:32.007Z,48.90
2023-05-17T21:21:58.540Z,48.80
2023-05-17T21:24:25.070Z,48.80
2023-05-17T21:26:51.609Z,49.00
2023-05-17T21:29:21.135Z,49.00
2023-05-17T21:31:47.663Z,48.90
2023-05-17T21:34:14.175Z,49.00
2023-05-17T21:36:40.729Z,48.80
2023-05-17T21:39:07.231Z,48.80
2023-05-17T21:41:33.738Z,48.70
2023-05-17T21:44:00.244Z,48.90
2023-05-17T21:46:26.773Z,48.90
2023-05-17T21:48:53.288Z,49.00
2023-05-17T21:51:19.820Z,48.90
2023-05-17T21:53:46.378Z,48.80
2023-05-17T21:56:12.895Z,49.00
2023-05-17T21:58:39.448Z,48.90
2023-05-17T22:01:05.971Z,48.90
2023-05-17T22:03:32.578Z,48.90
2023-05-17T22:05:59.190Z,49.00
2023-05-17T22:08:25.729Z,49.10
2023-05-17T22:10:52.255Z,48.90
2023-05-17T22:13:18.788Z,48.80
2023-05-17T22:15:45.378Z,48.80
2023-05-17T22:18:12.032Z,48.90
2023-05-17T22:20:38.642Z,49.00
2023-05-17T22:23:05.145Z,49.00
2023-05-17T22:25:31.652Z,49.00
2023-05-17T22:27:58.213Z,48.90
2023-05-17T22:30:24.751Z,48.90
2023-05-17T22:32:51.316Z,49.00
2023-05-17T22:35:17.908Z,49.00
2023-05-17T22:37:44.410Z,48.90
2023-05-17T22:40:11.029Z,48.90
2023-05-17T22:42:37.612Z,48.90
2023-05-17T22:45:04.152Z,48.90
2023-05-17T22:47:30.667Z,48.80
2023-05-17T22:49:57.223Z,49.00
2023-05-17T22:52:23.733Z,48.90
2023-05-17T22:54:50.287Z,49.00
2023-05-17T22:57:16.807Z,48.90
2023-05-17T22:59:43.333Z,48.90
2023-05-17T23:02:09.864Z,48.90
2023-05-17T23:04:36.412Z,48.90
2023-05-17T23:07:02.934Z,48.80
2023-05-17T23:09:29.469Z,49.00
2023-05-17T23:11:55.974Z,48.90
2023-05-17T23:14:22.506Z,49.00
2023-05-17T23:16:49.042Z,48.90
2023-05-17T23:19:15.599Z,48.80
2023-05-17T23:21:42.122Z,48.80
2023-05-17T23:24:08.648Z,48.90
2023-05-17T23:26:35.217Z,48.90
2023-05-17T23:29:01.737Z,48.80
2023-05-17T23:31:28.378Z,48.90
2023-05-17T23:33:54.959Z,48.70
2023-05-17T23:36:21.467Z,48.70
2023-05-17T23:38:47.998Z,48.80
2023-05-17T23:41:14.524Z,48.90
2023-05-17T23:43:41.034Z,48.90
2023-05-17T23:46:07.558Z,48.90
2023-05-17T23:48:34.073Z,48.70
2023-05-17T23:51:00.576Z,48.80
2023-05-17T23:53:27.075Z,48.80
2023-05-17T23:55:53.591Z,48.70
2023-05-17T23:58:20.119Z,48.60
